»·PEaware :: N191WR L52-L88

N191WR :: L52-L88

FLIGHT INFORMATION

Flight Status: Arrived
Operator: Privately registered:
United States
More flights under this callsign
Pilot: Michael M. (12217)
Aircraft: CESSNA 172 SKYHAWK
(C172)
More flights by this aircraft type
Origin: L52 Oceano Co
United States
Destination: L88 New Cuyama
United States
More flights between these airports :: More routes between these airports
Route: L52 DCT L88
File this flight plan on PilotEdge
Remarks:
Altitude:
(Current/Filed)
0ft
Speed:
(Current/Filed)
110kts
Departed: 10-Oct-16 06:32 PM
Arrived: 10-Oct-16 07:03 PM
Distance/Time
Traveled:
47nm/0:31
Distance/Time
To Go:
Arrived

Flight Plot

Page will automatically refresh every two minutes.


Map Options




Map Legend


Flown Route
Filed Route
Departure Airport
Arrival Airport
Navaid (VOR, NDB)
Fix

Horizontal Profiles

Position Reports

Time Latitude Longitude Heading Altitude Ground
Speed
10-Oct-16 17:50 35.103417 -120.624581 25 17ft 0kts
10-Oct-16 17:51 35.103417 -120.624581 25 17ft 0kts
10-Oct-16 17:52 35.103417 -120.624581 25 17ft 0kts
10-Oct-16 17:53 35.103558 -120.624823 32 15ft 0kts
10-Oct-16 17:54 35.103558 -120.624823 32 15ft 0kts
10-Oct-16 17:55 35.103558 -120.624823 32 15ft 0kts
10-Oct-16 17:56 35.103529 -120.624637 144 15ft 9kts
10-Oct-16 17:57 35.103551 -120.624519 280 15ft 0kts
10-Oct-16 17:58 35.103551 -120.624519 280 15ft 0kts
10-Oct-16 17:59 35.103551 -120.624519 280 15ft 0kts
10-Oct-16 18:00 35.103551 -120.624519 280 15ft 0kts
10-Oct-16 18:01 35.103551 -120.624519 280 15ft 0kts
10-Oct-16 18:02 35.103551 -120.624519 280 15ft 0kts
10-Oct-16 18:03 35.103551 -120.624519 280 15ft 0kts
10-Oct-16 18:04 35.103551 -120.624519 280 15ft 0kts
10-Oct-16 18:05 35.103551 -120.624519 280 15ft 0kts
10-Oct-16 18:06 35.103551 -120.624519 280 15ft 0kts
10-Oct-16 18:07 35.103551 -120.624519 280 15ft 0kts
10-Oct-16 18:08 35.103551 -120.624519 280 15ft 0kts
10-Oct-16 18:09 35.103551 -120.624519 280 15ft 0kts
10-Oct-16 18:10 35.103551 -120.624519 280 15ft 0kts
10-Oct-16 18:11 35.103551 -120.624519 280 15ft 0kts
10-Oct-16 18:12 35.103136 -120.623871 123 15ft 0kts
10-Oct-16 18:13 35.102383 -120.622604 140 15ft 0kts
10-Oct-16 18:14 35.102383 -120.622604 140 15ft 0kts
10-Oct-16 18:15 35.102383 -120.622604 140 15ft 0kts
10-Oct-16 18:16 35.102273 -120.622455 121 15ft 6kts
10-Oct-16 18:17 35.101979 -120.622157 193 15ft 0kts
10-Oct-16 18:18 35.101739 -120.622334 210 15ft 0kts
10-Oct-16 18:19 35.100804 -120.622010 122 15ft 7kts
10-Oct-16 18:20 35.099772 -120.620123 123 15ft 7kts
10-Oct-16 18:21 35.099750 -120.620083 123 15ft 0kts
10-Oct-16 18:22 35.099750 -120.620083 123 15ft 0kts
10-Oct-16 18:23 35.103569 -120.624813 32 17ft 0kts
10-Oct-16 18:24 35.103295 -120.624266 127 17ft 10kts
10-Oct-16 18:25 35.102123 -120.622526 120 17ft 7kts
10-Oct-16 18:26 35.100898 -120.622188 123 17ft 4kts
10-Oct-16 18:27 35.099509 -120.619665 117 17ft 0kts
10-Oct-16 18:28 35.103654 -120.628272 277 249ft 68kts
10-Oct-16 18:29 35.098495 -120.639157 104 989ft 77kts
10-Oct-16 18:30 35.084219 -120.618013 146 1662ft 86kts
10-Oct-16 18:31 35.087986 -120.595391 54 2374ft 80kts
10-Oct-16 18:32 35.097252 -120.570261 88 3052ft 81kts
10-Oct-16 18:33 35.090798 -120.542259 105 3665ft 88kts
10-Oct-16 18:34 35.094373 -120.513194 111 4208ft 94kts
10-Oct-16 18:35 35.074173 -120.492467 153 4667ft 98kts
10-Oct-16 18:36 35.071363 -120.460980 89 5104ft 100kts
10-Oct-16 18:37 35.065087 -120.428270 73 5520ft 102kts
10-Oct-16 18:38 35.065944 -120.388933 99 5432ft 125kts
10-Oct-16 18:39 35.049973 -120.352378 125 5373ft 123kts
10-Oct-16 18:40 35.042912 -120.340831 133 5355ft 122kts
10-Oct-16 18:41 35.022864 -120.309784 121 5496ft 118kts
10-Oct-16 18:42 35.009054 -120.280693 123 5562ft 118kts
10-Oct-16 18:43 34.993366 -120.247042 82 5524ft 123kts
10-Oct-16 18:44 34.999192 -120.205376 85 5382ft 116kts
10-Oct-16 18:45 35.002992 -120.165261 84 5433ft 104kts
10-Oct-16 18:46 35.004904 -120.129050 86 5632ft 119kts
10-Oct-16 18:47 34.998133 -120.088997 105 5623ft 121kts
10-Oct-16 18:48 34.989908 -120.048305 105 5617ft 129kts
10-Oct-16 18:49 34.981192 -120.004498 105 5613ft 134kts
10-Oct-16 18:50 34.972412 -119.960498 108 5600ft 133kts
10-Oct-16 18:51 34.977819 -119.916474 61 4887ft 137kts
10-Oct-16 18:52 34.985934 -119.874078 83 4014ft 131kts
10-Oct-16 18:53 34.986067 -119.831223 101 3327ft 128kts
10-Oct-16 18:54 34.975678 -119.789328 113 3009ft 130kts
10-Oct-16 18:55 34.959572 -119.750259 130 2682ft 118kts
10-Oct-16 18:56 34.942370 -119.717974 115 2637ft 115kts
10-Oct-16 18:57 34.936019 -119.685120 122 2493ft 83kts
10-Oct-16 18:58 34.937006 -119.678208 282 2258ft 50kts
10-Oct-16 18:59 34.940174 -119.686138 297 2206ft 22kts
10-Oct-16 19:00 34.941771 -119.690034 301 2200ft 6kts
10-Oct-16 19:01 34.942566 -119.690685 6 2191ft 0kts
10-Oct-16 19:02 34.942819 -119.690832 209 2188ft 0kts
10-Oct-16 19:03 34.942819 -119.690832 209 2188ft 0kts
10-Oct-16 19:04 34.942819 -119.690832 209 2188ft 0kts
10-Oct-16 19:05 34.942819 -119.690832 209 2188ft 0kts

Navigation Log

Ident Type
Flight plan parsing failed, navigation log unavailable